createdAt,value
2023-04-30T00:02:58.766Z,12.49
2023-04-30T00:08:20.510Z,12.44
2023-04-30T00:13:43.005Z,12.46
2023-04-30T00:19:04.752Z,12.47
2023-04-30T00:24:26.424Z,12.41
2023-04-30T00:29:48.108Z,12.33
2023-04-30T00:35:09.818Z,12.36
2023-04-30T00:40:34.830Z,12.34
2023-04-30T00:45:56.550Z,12.27
2023-04-30T00:51:18.366Z,12.28
2023-04-30T00:56:40.725Z,12.27
2023-04-30T01:02:03.242Z,12.22
2023-04-30T01:07:28.202Z,12.23
2023-04-30T01:12:49.798Z,12.25
2023-04-30T01:18:33.748Z,12.22
2023-04-30T01:24:24.810Z,12.19
2023-04-30T01:29:46.521Z,12.22
2023-04-30T01:35:08.536Z,12.19
2023-04-30T01:40:48.107Z,12.18
2023-04-30T01:46:25.751Z,12.12
2023-04-30T01:51:48.562Z,12.13
2023-04-30T01:57:21.516Z,12.17
2023-04-30T02:02:43.550Z,12.14
2023-04-30T02:08:05.789Z,12.11
2023-04-30T02:13:27.485Z,12.08
2023-04-30T02:18:49.199Z,12.00
2023-04-30T02:24:10.950Z,12.10
2023-04-30T02:29:32.654Z,11.95
2023-04-30T02:34:54.377Z,11.85
2023-04-30T02:40:16.088Z,11.71
2023-04-30T02:45:37.840Z,11.79
2023-04-30T02:50:59.544Z,11.81
2023-04-30T02:56:21.378Z,11.80
2023-04-30T03:01:43.213Z,11.77
2023-04-30T03:07:06.790Z,11.77
2023-04-30T03:12:28.511Z,11.73
2023-04-30T03:17:50.487Z,11.79
2023-04-30T03:23:12.222Z,11.75
2023-04-30T03:28:34.361Z,11.70
2023-04-30T03:33:56.129Z,11.67
2023-04-30T03:39:17.881Z,11.54
2023-04-30T03:44:39.572Z,11.49
2023-04-30T03:50:01.266Z,11.44
2023-04-30T03:55:23.060Z,11.47
2023-04-30T04:00:45.772Z,11.52
2023-04-30T04:06:07.452Z,11.56
2023-04-30T04:11:29.176Z,11.53
2023-04-30T04:16:50.906Z,11.36
2023-04-30T04:22:12.602Z,11.38
2023-04-30T04:27:34.390Z,11.35
2023-04-30T04:32:56.088Z,11.44
2023-04-30T04:38:18.424Z,11.45
2023-04-30T04:43:40.630Z,11.41
2023-04-30T04:49:02.396Z,11.56
2023-04-30T04:54:24.157Z,11.49
2023-04-30T04:59:45.932Z,11.54
2023-04-30T05:05:07.990Z,11.54
2023-04-30T05:10:29.684Z,11.51
2023-04-30T05:15:52.633Z,11.55
2023-04-30T05:21:14.474Z,11.58
2023-04-30T05:26:36.196Z,11.56
2023-04-30T05:31:57.981Z,11.64
2023-04-30T05:37:20.623Z,11.63
2023-04-30T05:42:45.841Z,11.68
2023-04-30T05:48:07.545Z,11.67
2023-04-30T05:53:29.242Z,11.71
2023-04-30T05:58:52.394Z,11.77
2023-04-30T06:04:14.217Z,11.83
2023-04-30T06:09:36.086Z,11.93
2023-04-30T06:14:58.062Z,11.93
2023-04-30T06:20:19.876Z,11.95
2023-04-30T06:25:41.633Z,11.99
2023-04-30T06:31:03.673Z,12.02
2023-04-30T06:36:27.742Z,12.07
2023-04-30T06:41:49.495Z,12.07
2023-04-30T06:47:11.178Z,12.16
2023-04-30T06:52:32.902Z,12.28
2023-04-30T06:57:54.616Z,12.35
2023-04-30T07:03:16.470Z,12.42
2023-04-30T07:08:40.977Z,12.41
2023-04-30T07:14:02.654Z,12.53
2023-04-30T07:19:26.845Z,12.57
2023-04-30T07:24:48.537Z,12.60
2023-04-30T07:30:10.554Z,12.65
2023-04-30T07:35:32.232Z,12.67
2023-04-30T07:40:53.924Z,12.76
2023-04-30T07:46:15.665Z,12.86
2023-04-30T07:51:37.398Z,13.00
2023-04-30T07:56:59.121Z,13.07
2023-04-30T08:02:21.125Z,13.14
2023-04-30T08:07:44.303Z,13.17
2023-04-30T08:13:06.102Z,13.23
2023-04-30T08:18:29.155Z,13.30
2023-04-30T08:23:51.422Z,13.39
2023-04-30T08:29:13.111Z,13.45
2023-04-30T08:34:35.387Z,13.52
2023-04-30T08:39:57.641Z,13.62
2023-04-30T08:45:19.975Z,13.68
2023-04-30T08:50:42.538Z,13.82
2023-04-30T08:56:04.788Z,13.89
2023-04-30T09:01:28.083Z,13.94
2023-04-30T09:06:52.997Z,14.02
2023-04-30T09:12:19.275Z,14.12
2023-04-30T09:17:41.692Z,14.21
2023-04-30T09:23:11.032Z,14.24
2023-04-30T09:28:32.735Z,14.30
2023-04-30T09:33:54.779Z,14.34
2023-04-30T09:39:18.072Z,14.39
2023-04-30T09:44:40.580Z,14.41
2023-04-30T09:50:02.423Z,14.46
2023-04-30T09:55:24.471Z,14.49
2023-04-30T10:00:48.296Z,14.52
2023-04-30T10:06:13.719Z,14.54
2023-04-30T10:11:37.767Z,14.59
2023-04-30T10:17:08.451Z,14.61
2023-04-30T10:22:30.760Z,14.63
2023-04-30T10:27:52.505Z,14.65
2023-04-30T10:33:32.292Z,14.68
2023-04-30T10:38:54.417Z,14.66
2023-04-30T10:44:22.501Z,14.71
2023-04-30T10:49:49.121Z,14.72
2023-04-30T10:55:11.098Z,14.74
2023-04-30T11:00:33.087Z,14.78
2023-04-30T11:05:55.268Z,14.83
2023-04-30T11:11:21.234Z,14.85
2023-04-30T11:16:43.247Z,14.88
2023-04-30T11:22:04.879Z,14.92
2023-04-30T11:27:28.703Z,14.98
2023-04-30T11:32:50.471Z,14.99
2023-04-30T11:38:14.070Z,15.01
2023-04-30T11:43:36.104Z,15.04
2023-04-30T11:48:57.925Z,15.06
2023-04-30T11:54:19.824Z,15.08
2023-04-30T11:59:42.250Z,15.14
2023-04-30T12:05:04.556Z,15.16
2023-04-30T12:10:26.346Z,15.18
2023-04-30T12:15:59.407Z,15.18
2023-04-30T12:21:22.949Z,15.18
2023-04-30T12:26:45.197Z,15.21
2023-04-30T12:32:06.945Z,15.23
2023-04-30T12:37:28.678Z,15.25
2023-04-30T12:42:51.521Z,15.24
2023-04-30T12:48:14.610Z,15.26
2023-04-30T12:53:45.563Z,15.28
2023-04-30T12:59:16.317Z,15.32
2023-04-30T13:04:38.383Z,15.35
2023-04-30T13:10:00.068Z,15.40
2023-04-30T13:15:21.880Z,15.42
2023-04-30T13:20:43.920Z,15.43
2023-04-30T13:26:05.692Z,15.46
2023-04-30T13:31:27.549Z,15.58
2023-04-30T13:36:49.368Z,15.69
2023-04-30T13:42:11.214Z,15.74
2023-04-30T13:47:32.958Z,15.73
2023-04-30T13:52:54.729Z,15.72
2023-04-30T13:58:16.641Z,15.75
2023-04-30T14:03:38.453Z,15.73
2023-04-30T14:09:00.371Z,15.78
2023-04-30T14:14:22.028Z,15.76
2023-04-30T14:19:43.713Z,15.76
2023-04-30T14:25:06.084Z,15.73
2023-04-30T14:30:27.876Z,15.68
2023-04-30T14:35:50.003Z,15.69
2023-04-30T14:41:12.825Z,15.80
2023-04-30T14:46:34.714Z,15.84
2023-04-30T14:51:56.896Z,15.90
2023-04-30T14:57:19.019Z,15.93
2023-04-30T15:02:40.822Z,15.99
2023-04-30T15:08:02.629Z,16.04
2023-04-30T15:13:24.386Z,16.05
2023-04-30T15:18:46.946Z,16.04
2023-04-30T15:24:08.873Z,16.04
2023-04-30T15:29:30.621Z,16.07
2023-04-30T15:34:52.341Z,16.05
2023-04-30T15:40:15.342Z,16.06
2023-04-30T15:45:37.511Z,16.02
2023-04-30T15:50:59.404Z,15.99
2023-04-30T15:56:25.593Z,16.01
2023-04-30T16:01:47.426Z,15.96
2023-04-30T16:07:09.178Z,15.94
2023-04-30T16:12:30.862Z,15.92
2023-04-30T16:17:52.777Z,15.90
2023-04-30T16:23:16.047Z,15.89
2023-04-30T16:28:37.920Z,15.86
2023-04-30T16:33:59.661Z,15.84
2023-04-30T16:39:21.355Z,15.82
2023-04-30T16:44:43.077Z,15.80
2023-04-30T16:50:05.263Z,15.77
2023-04-30T16:55:27.517Z,15.75
2023-04-30T17:00:55.705Z,15.73
2023-04-30T17:06:18.498Z,15.70
2023-04-30T17:11:40.433Z,15.66
2023-04-30T17:17:02.242Z,15.65
2023-04-30T17:22:24.834Z,15.66
2023-04-30T17:27:47.269Z,15.64
2023-04-30T17:33:09.016Z,15.59
2023-04-30T17:38:30.754Z,15.56
2023-04-30T17:43:52.472Z,15.54
2023-04-30T17:49:14.155Z,15.42
2023-04-30T17:54:36.517Z,15.37
2023-04-30T17:59:58.673Z,15.23
2023-04-30T18:05:20.537Z,15.12
2023-04-30T18:10:42.214Z,14.98
2023-04-30T18:16:04.119Z,14.85
2023-04-30T18:21:26.046Z,14.74
2023-04-30T18:26:47.817Z,14.67
2023-04-30T18:32:09.569Z,14.60
2023-04-30T18:37:31.869Z,14.53
2023-04-30T18:42:54.486Z,14.46
2023-04-30T18:48:18.933Z,14.40
2023-04-30T18:53:42.251Z,14.36
2023-04-30T18:59:04.287Z,14.30
2023-04-30T19:04:26.346Z,14.27
2023-04-30T19:09:50.283Z,14.19
2023-04-30T19:15:16.904Z,14.17
2023-04-30T19:20:39.407Z,14.13
2023-04-30T19:26:01.514Z,14.08
2023-04-30T19:31:23.363Z,14.00
2023-04-30T19:36:45.349Z,13.95
2023-04-30T19:42:08.286Z,13.87
2023-04-30T19:47:30.092Z,13.85
2023-04-30T19:52:51.984Z,13.80
2023-04-30T19:58:14.091Z,13.79
2023-04-30T20:03:36.086Z,13.74
2023-04-30T20:08:59.355Z,13.65
2023-04-30T20:14:23.734Z,13.54
2023-04-30T20:19:45.541Z,13.46
2023-04-30T20:25:08.090Z,13.45
2023-04-30T20:30:29.845Z,13.36
2023-04-30T20:35:51.583Z,13.30
2023-04-30T20:41:13.693Z,13.24
2023-04-30T20:46:36.671Z,13.14
2023-04-30T20:51:58.441Z,13.03
2023-04-30T20:57:20.271Z,12.96
2023-04-30T21:02:42.737Z,12.92
2023-04-30T21:08:04.775Z,12.94
2023-04-30T21:13:26.496Z,12.90
2023-04-30T21:18:48.780Z,12.90
2023-04-30T21:24:10.850Z,12.91
2023-04-30T21:29:33.842Z,12.88
2023-04-30T21:34:55.514Z,12.82
2023-04-30T21:40:17.263Z,12.79
2023-04-30T21:45:40.038Z,12.77
2023-04-30T21:51:04.302Z,12.76
2023-04-30T21:56:26.089Z,12.68
2023-04-30T22:01:48.025Z,12.65
2023-04-30T22:07:09.727Z,12.60
2023-04-30T22:12:32.634Z,12.52
2023-04-30T22:17:54.404Z,12.48
2023-04-30T22:23:16.553Z,12.47
2023-04-30T22:28:38.372Z,12.34
2023-04-30T22:34:00.063Z,12.33
2023-04-30T22:39:22.262Z,12.31
2023-04-30T22:44:45.303Z,12.27
2023-04-30T22:50:08.257Z,12.22
2023-04-30T22:55:31.073Z,12.28
2023-04-30T23:00:52.816Z,12.12
2023-04-30T23:06:14.579Z,12.04
2023-04-30T23:11:36.486Z,12.02
2023-04-30T23:16:58.438Z,12.04
2023-04-30T23:22:20.275Z,12.01
2023-04-30T23:27:43.218Z,12.08
2023-04-30T23:33:04.998Z,12.01
2023-04-30T23:38:26.958Z,11.99
2023-04-30T23:43:48.756Z,11.98
2023-04-30T23:49:10.416Z,11.99
2023-04-30T23:54:32.759Z,11.90
2023-04-30T23:59:55.116Z,11.74
